Time;durP1;ratioP1;P1;durP2;ratioP2;P2;SDS_P1;SDS_P2;PMS_P1;PMS_P2;Temp;Humidity;BMP_temperature;BMP_pressure;BME280_temperature;BME280_humidity;BME280_pressure;Samples;Min_cycle;Max_cycle;Signal;HPM_P1;HPM_P2
2022/12/23 00:00:22;;;;;;;52.55;22.20;;;6.50;99.90;;;;;;5079214;28;20046;-81
2022/12/23 00:02:48;;;;;;;52.50;22.42;;;6.50;99.90;;;;;;5112951;28;20079;-81
2022/12/23 00:05:15;;;;;;;48.80;21.40;;;6.50;99.90;;;;;;5079057;28;20063;-81
2022/12/23 00:07:43;;;;;;;50.40;21.48;;;6.50;99.90;;;;;;5079199;28;20044;-81
2022/12/23 00:10:11;;;;;;;83.85;22.75;;;6.50;99.90;;;;;;5092158;28;20806;-81
2022/12/23 00:15:22;;;;;;;55.50;21.48;;;6.50;99.90;;;;;;5080668;28;20040;-81
2022/12/23 00:17:49;;;;;;;47.72;21.33;;;6.50;99.90;;;;;;5076007;28;20127;-81
2022/12/23 00:20:16;;;;;;;52.13;21.95;;;6.50;99.90;;;;;;5091698;28;20082;-82
2022/12/23 00:25:39;;;;;;;48.97;21.27;;;6.50;99.90;;;;;;5108572;28;20041;-81
2022/12/23 00:28:16;;;;;;;43.25;20.40;;;6.50;99.90;;;;;;5091626;28;20040;-81
2022/12/23 00:30:48;;;;;;;51.30;22.10;;;6.50;99.90;;;;;;5092197;28;20028;-82
2022/12/23 00:33:18;;;;;;;56.55;21.83;;;6.50;99.90;;;;;;5107484;28;20495;-81
2022/12/23 00:35:45;;;;;;;51.05;21.65;;;6.40;99.90;;;;;;5092035;28;20174;-81
2022/12/23 00:38:12;;;;;;;70.80;23.42;;;6.50;99.90;;;;;;5091773;28;20043;-81
2022/12/23 00:43:25;;;;;;;50.67;21.67;;;6.40;99.90;;;;;;5110135;28;20075;-81
2022/12/23 00:45:52;;;;;;;51.67;21.73;;;6.40;99.90;;;;;;5095027;28;20467;-81
2022/12/23 00:51:04;;;;;;;51.03;22.17;;;6.40;99.90;;;;;;5100178;28;20135;-81
2022/12/23 00:53:31;;;;;;;53.17;21.80;;;6.50;99.90;;;;;;5078486;28;20123;-81
2022/12/23 00:55:57;;;;;;;54.53;20.50;;;6.40;99.90;;;;;;5078613;28;20076;-81
2022/12/23 00:58:25;;;;;;;52.47;21.13;;;6.40;99.90;;;;;;5094758;28;20047;-81
2022/12/23 01:06:23;;;;;;;44.50;19.27;;;6.40;99.90;;;;;;5093678;28;20137;-81
2022/12/23 01:08:50;;;;;;;51.78;20.42;;;6.40;99.90;;;;;;5074836;28;20040;-81
2022/12/23 01:11:17;;;;;;;50.85;19.98;;;6.30;99.90;;;;;;5091808;28;20036;-82
2022/12/23 01:13:44;;;;;;;42.47;19.80;;;6.30;99.90;;;;;;5091033;28;20415;-81
2022/12/23 01:16:10;;;;;;;45.47;20.95;;;6.30;99.90;;;;;;5090919;28;20053;-82
2022/12/23 01:18:37;;;;;;;48.78;21.70;;;6.30;99.90;;;;;;5107829;28;20131;-81
2022/12/23 01:21:06;;;;;;;50.00;20.73;;;6.40;99.90;;;;;;5074486;28;20051;-81
2022/12/23 01:23:33;;;;;;;48.53;20.23;;;6.30;99.90;;;;;;5107524;28;20062;-81
2022/12/23 01:26:03;;;;;;;59.08;19.92;;;6.40;99.90;;;;;;5107578;28;20048;-81
2022/12/23 01:28:31;;;;;;;46.95;20.65;;;6.30;99.90;;;;;;5107396;28;20488;-81
2022/12/23 01:30:59;;;;;;;52.35;19.83;;;6.30;99.90;;;;;;5077797;28;20042;-81
2022/12/23 01:33:26;;;;;;;59.92;20.88;;;6.30;99.90;;;;;;5101766;28;20037;-81
2022/12/23 01:36:00;;;;;;;53.90;21.02;;;6.30;99.90;;;;;;5074558;28;20029;-81
2022/12/23 01:38:28;;;;;;;70.10;21.83;;;6.30;99.90;;;;;;5073740;28;20036;-81
2022/12/23 01:40:55;;;;;;;56.72;22.67;;;6.30;99.90;;;;;;5074255;28;20036;-80
2022/12/23 01:43:23;;;;;;;55.72;20.95;;;6.30;99.90;;;;;;5080100;28;20114;-81
2022/12/23 01:45:49;;;;;;;61.58;21.50;;;6.20;99.90;;;;;;5110520;28;20101;-81
2022/12/23 01:48:21;;;;;;;58.42;22.58;;;6.30;99.90;;;;;;5077322;28;20484;-81
2022/12/23 01:50:57;;;;;;;54.40;22.90;;;6.20;99.90;;;;;;5127537;28;20123;-81
2022/12/23 01:53:36;;;;;;;47.92;20.75;;;6.20;99.90;;;;;;5106372;28;20047;-82
2022/12/23 01:56:12;;;;;;;56.92;21.83;;;6.20;99.90;;;;;;5090271;28;20048;-81
2022/12/23 01:58:42;;;;;;;66.03;22.50;;;6.30;99.90;;;;;;5089994;28;20131;-81
2022/12/23 02:04:00;;;;;;;64.15;22.08;;;6.20;99.90;;;;;;5093127;28;20044;-80
2022/12/23 02:09:27;;;;;;;54.38;21.52;;;6.20;99.90;;;;;;5106490;28;20047;-81
2022/12/23 02:11:57;;;;;;;73.03;23.02;;;6.20;99.90;;;;;;5089919;28;20044;-82
2022/12/23 02:17:52;;;;;;;77.25;23.30;;;6.30;99.90;;;;;;5127675;28;20044;-81
2022/12/23 02:20:43;;;;;;;63.20;22.60;;;6.20;99.90;;;;;;5140499;28;20488;-83
2022/12/23 02:23:44;;;;;;;53.95;22.02;;;6.20;99.90;;;;;;5109916;28;20084;-81
2022/12/23 02:26:41;;;;;;;110.20;24.58;;;6.20;99.90;;;;;;5109853;28;20090;-81
2022/12/23 02:29:45;;;;;;;159.40;29.17;;;6.30;99.90;;;;;;5110030;28;20059;-81
2022/12/23 02:32:18;;;;;;;78.50;24.92;;;6.30;99.90;;;;;;5109613;28;20040;-81
2022/12/23 02:35:22;;;;;;;150.80;26.60;;;6.30;99.90;;;;;;5109394;28;20032;-82
2022/12/23 02:37:54;;;;;;;107.97;26.02;;;6.30;99.90;;;;;;5109597;28;20126;-82
2022/12/23 02:41:02;;;;;;;126.63;25.92;;;6.30;99.90;;;;;;5109672;28;20126;-82
2022/12/23 02:43:55;;;;;;;74.28;24.45;;;6.30;99.90;;;;;;5109555;28;20135;-82
2022/12/23 02:46:50;;;;;;;107.90;26.05;;;6.30;99.90;;;;;;5109628;28;20130;-82
2022/12/23 02:49:43;;;;;;;91.25;24.27;;;6.30;99.90;;;;;;5109337;28;20032;-82
2022/12/23 02:52:16;;;;;;;84.10;25.38;;;6.30;99.90;;;;;;5089727;28;20543;-82
2022/12/23 02:54:49;;;;;;;86.60;26.90;;;6.30;99.90;;;;;;5072916;28;20119;-82
2022/12/23 02:57:21;;;;;;;96.32;26.92;;;6.30;99.90;;;;;;5089585;28;20040;-82
2022/12/23 02:59:50;;;;;;;86.35;25.35;;;6.30;99.90;;;;;;5093014;28;20044;-82
2022/12/23 03:02:18;;;;;;;135.90;29.10;;;6.30;99.90;;;;;;5109256;28;20044;-82
2022/12/23 03:04:45;;;;;;;115.50;28.40;;;6.40;99.90;;;;;;5109279;28;20048;-82
2022/12/23 03:07:29;;;;;;;142.02;28.38;;;6.40;99.90;;;;;;5091811;28;20040;-82
2022/12/23 03:10:30;;;;;;;143.48;28.75;;;6.40;99.90;;;;;;5108851;28;20063;-82
2022/12/23 03:13:02;;;;;;;137.85;27.10;;;6.40;99.90;;;;;;5120079;28;20051;-82
2022/12/23 03:15:56;;;;;;;122.82;25.75;;;6.40;99.90;;;;;;5108929;28;20036;-82
2022/12/23 03:18:28;;;;;;;100.43;26.15;;;6.40;99.90;;;;;;5109172;28;20053;-82
2022/12/23 03:21:04;;;;;;;85.53;24.33;;;6.40;99.90;;;;;;5109186;28;20036;-82
2022/12/23 03:23:39;;;;;;;110.85;26.27;;;6.50;99.90;;;;;;5095472;28;20491;-82
2022/12/23 03:26:37;;;;;;;131.27;25.97;;;6.40;99.90;;;;;;5105554;28;20401;-82
2022/12/23 03:29:44;;;;;;;109.05;26.35;;;6.40;99.90;;;;;;5068329;28;20635;-82
2022/12/23 03:32:13;;;;;;;107.67;26.93;;;6.40;99.90;;;;;;5089207;28;20029;-81
2022/12/23 03:34:45;;;;;;;115.35;26.95;;;6.40;99.90;;;;;;5088579;28;20369;-82
2022/12/23 03:37:14;;;;;;;88.72;26.23;;;6.40;99.90;;;;;;5088724;28;20127;-82
2022/12/23 03:39:59;;;;;;;118.03;27.73;;;6.40;99.90;;;;;;5088581;28;20404;-82
2022/12/23 03:42:32;;;;;;;158.38;29.17;;;6.40;99.90;;;;;;5105373;28;20045;-82
2022/12/23 03:45:03;;;;;;;137.13;27.80;;;6.40;99.90;;;;;;5088740;28;20040;-82
2022/12/23 03:47:43;;;;;;;113.75;27.65;;;6.40;99.90;;;;;;5088812;28;20481;-81
2022/12/23 03:50:16;;;;;;;160.18;29.60;;;6.40;99.90;;;;;;5105511;28;20136;-82
2022/12/23 03:53:02;;;;;;;146.38;28.30;;;6.40;99.90;;;;;;5088453;28;20044;-82
2022/12/23 03:55:39;;;;;;;132.18;26.80;;;6.40;99.90;;;;;;5088603;28;20036;-82
2022/12/23 03:58:29;;;;;;;128.25;26.70;;;6.40;99.90;;;;;;5088734;28;20045;-82
2022/12/23 04:01:10;;;;;;;154.75;29.83;;;6.40;99.90;;;;;;5088398;28;20037;-82
2022/12/23 04:03:50;;;;;;;133.35;27.48;;;6.40;99.90;;;;;;5088363;28;20049;-82
2022/12/23 04:06:19;;;;;;;159.23;28.67;;;6.40;99.90;;;;;;5093916;28;20124;-81
2022/12/23 04:08:48;;;;;;;105.20;26.50;;;6.40;99.90;;;;;;5092363;28;20040;-82
2022/12/23 04:11:15;;;;;;;154.57;28.05;;;6.40;99.90;;;;;;5092201;28;20040;-82
2022/12/23 04:13:42;;;;;;;112.30;26.45;;;6.40;99.90;;;;;;5075433;28;20112;-82
2022/12/23 04:16:09;;;;;;;134.65;27.23;;;6.40;99.90;;;;;;5091783;28;20079;-82
2022/12/23 04:18:36;;;;;;;144.02;27.30;;;6.40;99.90;;;;;;5110456;28;20044;-82
2022/12/23 04:21:02;;;;;;;101.43;24.77;;;6.40;99.90;;;;;;5095873;28;20386;-82
2022/12/23 04:23:29;;;;;;;110.93;26.70;;;6.40;99.90;;;;;;5079315;28;20040;-81
2022/12/23 04:25:56;;;;;;;123.63;25.60;;;6.40;99.90;;;;;;5078610;28;20075;-81
2022/12/23 04:28:22;;;;;;;135.00;26.83;;;6.40;99.90;;;;;;5095793;28;20392;-82
2022/12/23 04:30:49;;;;;;;115.85;25.40;;;6.40;99.90;;;;;;5095015;28;20072;-82
2022/12/23 04:33:16;;;;;;;88.78;23.67;;;6.40;99.90;;;;;;5095319;28;20123;-82
2022/12/23 04:35:42;;;;;;;118.25;25.15;;;6.40;99.90;;;;;;5078744;28;20062;-82
2022/12/23 04:38:09;;;;;;;98.55;23.38;;;6.40;99.90;;;;;;5095384;28;20043;-81
2022/12/23 04:40:36;;;;;;;84.50;23.02;;;6.40;99.90;;;;;;5079654;28;20562;-81
2022/12/23 04:43:03;;;;;;;100.70;23.23;;;6.40;99.90;;;;;;5074610;28;20060;-81
2022/12/23 04:45:31;;;;;;;112.53;23.98;;;6.40;99.90;;;;;;5091895;28;20094;-81
2022/12/23 04:47:58;;;;;;;111.72;23.42;;;6.40;99.90;;;;;;5091273;28;20093;-81
2022/12/23 04:50:24;;;;;;;71.68;21.45;;;6.40;99.90;;;;;;5074647;28;20052;-81
2022/12/23 04:52:51;;;;;;;84.28;23.05;;;6.40;99.90;;;;;;5077812;28;20496;-82
2022/12/23 04:55:18;;;;;;;106.13;23.13;;;6.30;99.90;;;;;;5075013;28;20044;-82
2022/12/23 04:57:44;;;;;;;85.30;21.77;;;6.40;99.90;;;;;;5074642;28;20141;-82
2022/12/23 05:00:12;;;;;;;70.25;20.33;;;6.30;99.90;;;;;;5091386;28;20044;-81
2022/12/23 05:02:38;;;;;;;82.35;22.25;;;6.40;99.90;;;;;;5078324;28;20605;-81
2022/12/23 05:05:05;;;;;;;85.85;22.00;;;6.40;99.90;;;;;;5077937;28;20044;-81
2022/12/23 05:07:32;;;;;;;86.72;21.95;;;6.30;99.90;;;;;;5094637;28;20522;-81
2022/12/23 05:10:00;;;;;;;67.28;20.63;;;6.30;99.90;;;;;;5094602;28;20500;-81
2022/12/23 05:12:28;;;;;;;81.82;20.50;;;6.30;99.90;;;;;;5077492;28;20036;-82
2022/12/23 05:14:55;;;;;;;79.35;20.67;;;6.30;99.90;;;;;;5094420;28;20488;-81
2022/12/23 05:17:22;;;;;;;69.90;20.92;;;6.30;99.90;;;;;;5078149;28;20044;-82
2022/12/23 05:19:48;;;;;;;66.30;19.13;;;6.20;99.90;;;;;;5094383;28;20044;-82
2022/12/23 05:22:15;;;;;;;72.25;21.08;;;6.30;99.90;;;;;;5078031;28;20067;-82
2022/12/23 05:24:42;;;;;;;84.93;20.65;;;6.20;99.90;;;;;;5074445;28;20097;-82
2022/12/23 05:27:08;;;;;;;93.97;19.35;;;6.20;99.90;;;;;;5074217;28;20040;-82
2022/12/23 05:29:35;;;;;;;82.60;19.60;;;6.20;99.90;;;;;;5073421;28;20036;-82
2022/12/23 05:32:02;;;;;;;102.85;20.48;;;6.20;99.90;;;;;;5074057;28;20083;-82
2022/12/23 05:34:29;;;;;;;101.97;20.98;;;6.20;99.90;;;;;;5094376;28;20082;-81
2022/12/23 05:36:56;;;;;;;74.45;19.70;;;6.20;99.90;;;;;;5073880;28;20127;-81
2022/12/23 05:39:22;;;;;;;72.30;18.92;;;6.20;99.90;;;;;;5090667;28;20132;-81
2022/12/23 05:41:49;;;;;;;80.90;18.35;;;6.10;99.90;;;;;;5090567;28;20076;-81
2022/12/23 05:44:16;;;;;;;78.25;19.23;;;6.10;99.90;;;;;;5090482;28;20063;-81
2022/12/23 05:46:43;;;;;;;76.85;19.30;;;6.10;99.90;;;;;;5094033;28;20090;-81
2022/12/23 05:49:09;;;;;;;93.25;18.50;;;6.10;99.90;;;;;;5077055;28;20036;-81
2022/12/23 05:51:36;;;;;;;72.82;17.67;;;6.10;99.90;;;;;;5077473;28;20551;-82
2022/12/23 05:54:03;;;;;;;77.30;18.80;;;6.00;99.90;;;;;;5077087;28;20047;-82
2022/12/23 05:56:29;;;;;;;90.13;19.25;;;6.00;99.90;;;;;;5094223;28;20402;-81
2022/12/23 05:58:56;;;;;;;72.32;18.45;;;6.00;99.90;;;;;;5083077;28;20123;-81
2022/12/23 06:01:23;;;;;;;81.10;17.90;;;6.00;99.90;;;;;;5073884;28;20048;-81
2022/12/23 06:03:49;;;;;;;70.95;17.60;;;6.00;99.90;;;;;;5073830;28;20040;-81
2022/12/23 06:06:16;;;;;;;63.33;17.83;;;6.00;99.90;;;;;;5073203;28;20046;-81
2022/12/23 06:08:43;;;;;;;67.47;17.58;;;6.00;99.90;;;;;;5073655;28;20098;-81
2022/12/23 06:11:09;;;;;;;64.63;17.38;;;6.00;99.90;;;;;;5073335;28;20040;-81
2022/12/23 06:13:36;;;;;;;66.35;15.88;;;5.90;99.90;;;;;;5073407;28;20075;-82
2022/12/23 06:16:03;;;;;;;74.80;17.27;;;5.90;99.90;;;;;;5073068;28;20047;-81
2022/12/23 06:18:30;;;;;;;103.55;19.02;;;5.90;99.90;;;;;;5107939;28;20090;-82
2022/12/23 06:20:57;;;;;;;66.30;17.02;;;5.90;99.90;;;;;;5076835;28;20488;-81
2022/12/23 06:23:23;;;;;;;55.88;15.50;;;5.90;99.90;;;;;;5076504;28;20580;-81
2022/12/23 06:25:57;;;;;;;76.75;17.55;;;5.90;99.90;;;;;;5093879;28;20126;-81
2022/12/23 06:28:24;;;;;;;77.68;18.20;;;5.90;99.90;;;;;;5093550;28;20032;-82
2022/12/23 06:30:55;;;;;;;68.32;16.88;;;5.90;99.90;;;;;;5076398;28;20047;-81
2022/12/23 06:33:23;;;;;;;79.00;17.65;;;5.90;99.90;;;;;;5093422;28;20067;-81
2022/12/23 06:35:50;;;;;;;64.47;16.38;;;5.80;99.90;;;;;;5110040;28;20036;-81
2022/12/23 06:38:17;;;;;;;89.07;16.48;;;5.80;99.90;;;;;;5076590;28;20043;-81
2022/12/23 06:40:43;;;;;;;99.63;17.45;;;5.70;99.90;;;;;;5089731;28;20067;-81
2022/12/23 06:43:12;;;;;;;85.05;16.08;;;5.70;99.90;;;;;;5089221;28;20044;-81
2022/12/23 06:45:39;;;;;;;68.90;14.95;;;5.60;99.90;;;;;;5089973;28;20036;-81
2022/12/23 06:48:06;;;;;;;43.70;14.88;;;5.50;99.90;;;;;;5089702;28;20036;-81
2022/12/23 06:50:33;;;;;;;54.47;16.65;;;5.40;99.90;;;;;;5089432;28;20053;-81
2022/12/23 06:52:59;;;;;;;48.00;14.95;;;5.40;99.90;;;;;;5076856;28;20102;-81
2022/12/23 06:55:26;;;;;;;78.57;15.20;;;5.40;99.90;;;;;;5089076;28;20045;-81
2022/12/23 06:57:53;;;;;;;45.42;14.52;;;5.40;99.90;;;;;;5089626;28;20484;-81
2022/12/23 07:00:19;;;;;;;45.58;14.15;;;5.50;99.90;;;;;;5105981;28;20094;-81
2022/12/23 07:02:47;;;;;;;56.22;13.63;;;5.30;99.90;;;;;;5089107;28;20123;-81
2022/12/23 07:05:14;;;;;;;79.53;16.00;;;5.40;99.90;;;;;;5092568;28;20935;-81
2022/12/23 07:07:40;;;;;;;49.60;13.45;;;5.30;99.90;;;;;;5126211;28;20131;-81
2022/12/23 07:10:07;;;;;;;64.68;14.70;;;5.50;99.90;;;;;;5092479;28;20043;-82
2022/12/23 07:12:34;;;;;;;48.38;15.07;;;5.30;99.90;;;;;;5092674;28;20068;-81
2022/12/23 07:15:01;;;;;;;60.08;15.38;;;5.40;99.90;;;;;;5072239;28;20071;-81
2022/12/23 07:17:28;;;;;;;78.53;16.20;;;5.40;99.90;;;;;;5071102;28;20386;-81
2022/12/23 07:19:54;;;;;;;43.75;13.98;;;5.40;99.90;;;;;;5106991;28;20044;-81
2022/12/23 07:22:21;;;;;;;53.22;13.55;;;5.40;99.90;;;;;;5085432;28;20036;-81
2022/12/23 07:24:48;;;;;;;61.47;15.95;;;5.40;99.90;;;;;;5092499;28;20050;-82
2022/12/23 07:27:15;;;;;;;76.38;15.65;;;5.40;99.90;;;;;;5105389;28;20036;-81
2022/12/23 07:29:41;;;;;;;91.63;18.05;;;5.40;99.90;;;;;;5112450;28;20036;-81
2022/12/23 07:32:08;;;;;;;122.53;18.73;;;5.50;99.90;;;;;;5095565;28;20039;-81
2022/12/23 07:34:35;;;;;;;72.57;17.15;;;5.50;99.90;;;;;;5112110;28;20071;-82
2022/12/23 07:37:02;;;;;;;113.00;17.77;;;5.50;99.90;;;;;;5075501;28;20393;-81
2022/12/23 07:39:28;;;;;;;83.22;17.50;;;5.50;99.90;;;;;;5088387;28;20135;-81
2022/12/23 07:41:55;;;;;;;73.85;16.83;;;5.50;99.90;;;;;;5088461;28;20045;-81
2022/12/23 07:44:22;;;;;;;63.75;17.38;;;5.50;99.90;;;;;;5093090;28;20097;-81
2022/12/23 07:46:48;;;;;;;113.30;17.20;;;5.60;99.90;;;;;;5067631;28;20041;-81
2022/12/23 07:49:15;;;;;;;108.00;16.58;;;5.60;99.90;;;;;;5072138;28;20119;-82
2022/12/23 07:51:42;;;;;;;122.85;17.60;;;5.60;99.90;;;;;;5099686;28;20094;-81
2022/12/23 07:54:12;;;;;;;49.47;15.35;;;5.60;99.90;;;;;;5078503;28;20036;-81
2022/12/23 07:56:39;;;;;;;89.47;16.63;;;5.70;99.90;;;;;;5112757;28;20412;-81
2022/12/23 07:59:05;;;;;;;88.82;16.85;;;5.70;99.90;;;;;;5097982;28;20043;-81
2022/12/23 08:01:32;;;;;;;106.50;16.33;;;5.70;99.90;;;;;;5076865;28;20061;-81
2022/12/23 08:03:59;;;;;;;92.07;17.25;;;5.70;99.90;;;;;;5131607;28;20509;-81
2022/12/23 08:06:25;;;;;;;73.68;16.13;;;5.70;99.90;;;;;;5094739;28;20036;-81
2022/12/23 08:08:52;;;;;;;73.40;16.42;;;5.70;99.90;;;;;;5116286;28;20057;-83
2022/12/23 08:11:19;;;;;;;109.75;18.42;;;5.80;99.90;;;;;;5097876;28;20039;-82
2022/12/23 08:13:47;;;;;;;79.70;16.45;;;5.80;99.90;;;;;;5075791;28;20040;-82
2022/12/23 08:16:14;;;;;;;117.68;18.38;;;5.80;99.90;;;;;;5094226;28;20040;-82
2022/12/23 08:18:41;;;;;;;111.05;25.52;;;5.80;99.90;;;;;;5100290;28;20123;-82
2022/12/23 08:21:26;;;;;;;103.40;18.63;;;5.70;99.90;;;;;;5133172;28;20047;-80
2022/12/23 08:23:53;;;;;;;73.80;21.15;;;5.70;99.90;;;;;;5076837;28;20044;-80
2022/12/23 08:26:22;;;;;;;59.40;16.42;;;5.80;99.90;;;;;;5059856;28;20067;-80
2022/12/23 08:28:53;;;;;;;87.80;17.15;;;5.70;99.90;;;;;;5093242;28;20037;-80
2022/12/23 08:31:25;;;;;;;87.95;17.02;;;5.70;99.90;;;;;;5092995;28;20043;-80
2022/12/23 08:33:54;;;;;;;100.15;17.73;;;5.70;99.90;;;;;;5093146;28;20040;-80
2022/12/23 08:36:25;;;;;;;83.70;19.02;;;5.70;99.90;;;;;;5092833;28;20036;-80
2022/12/23 08:38:54;;;;;;;49.83;11.23;;;5.90;99.90;;;;;;5130438;28;20035;-80
2022/12/23 08:41:27;;;;;;;45.20;12.45;;;5.70;99.90;;;;;;5133205;28;20081;-80
2022/12/23 08:43:56;;;;;;;45.10;14.63;;;5.70;99.90;;;;;;5116581;28;20126;-80
2022/12/23 08:46:23;;;;;;;40.45;12.63;;;5.70;99.90;;;;;;5133024;28;20082;-80
2022/12/23 08:48:51;;;;;;;45.85;12.75;;;5.70;99.90;;;;;;5133159;28;20042;-80
2022/12/23 08:51:20;;;;;;;47.85;13.23;;;5.70;99.90;;;;;;5132862;28;20543;-80
2022/12/23 08:53:47;;;;;;;39.75;14.05;;;5.60;99.90;;;;;;5133290;28;20127;-80
2022/12/23 08:56:19;;;;;;;39.13;13.63;;;5.60;99.90;;;;;;5133026;28;20180;-80
2022/12/23 08:58:49;;;;;;;47.03;14.27;;;5.60;99.90;;;;;;5132966;28;20039;-80
2022/12/23 09:01:18;;;;;;;52.50;15.10;;;5.50;99.90;;;;;;5149881;28;20115;-80
2022/12/23 09:03:46;;;;;;;44.50;13.85;;;5.60;99.90;;;;;;5132491;28;20510;-80
2022/12/23 09:06:27;;;;;;;39.15;11.90;;;5.50;99.90;;;;;;5115085;28;20047;-80
2022/12/23 09:08:54;;;;;;;40.28;13.15;;;5.40;99.90;;;;;;5150067;28;20046;-80
2022/12/23 09:11:23;;;;;;;38.60;13.73;;;5.40;99.90;;;;;;5116017;28;20039;-80
2022/12/23 09:13:49;;;;;;;43.45;13.48;;;5.60;99.90;;;;;;5132612;28;20043;-80
2022/12/23 09:16:17;;;;;;;92.35;13.30;;;5.40;99.90;;;;;;5115754;28;20118;-80
2022/12/23 09:18:45;;;;;;;100.40;13.73;;;5.40;99.90;;;;;;5149458;28;20079;-80
2022/12/23 09:21:19;;;;;;;190.68;16.63;;;5.40;99.90;;;;;;5132580;28;20075;-80
2022/12/23 09:23:46;;;;;;;201.43;14.50;;;5.50;99.90;;;;;;5132383;28;20069;-80
2022/12/23 09:26:24;;;;;;;47.28;12.65;;;5.50;99.90;;;;;;5149608;28;20047;-80
2022/12/23 09:28:52;;;;;;;35.85;11.20;;;5.60;99.90;;;;;;5132400;28;20452;-80
2022/12/23 09:31:21;;;;;;;92.68;10.98;;;5.60;99.90;;;;;;5149630;28;20042;-80
2022/12/23 09:33:50;;;;;;;123.70;11.90;;;5.60;99.90;;;;;;5132302;28;20109;-80
2022/12/23 09:36:17;;;;;;;79.20;11.63;;;5.60;99.90;;;;;;5150689;28;20113;-80
2022/12/23 09:38:44;;;;;;;60.80;10.65;;;5.70;99.90;;;;;;5132430;28;20028;-80
2022/12/23 09:41:31;;;;;;;114.68;10.75;;;5.90;99.90;;;;;;5132130;28;20496;-80
2022/12/23 09:44:06;;;;;;;78.13;12.00;;;5.70;99.90;;;;;;5081862;28;20082;-80
2022/12/23 09:46:37;;;;;;;125.95;14.75;;;5.70;99.90;;;;;;5131871;28;20130;-80
2022/12/23 09:49:10;;;;;;;57.72;12.40;;;5.80;99.90;;;;;;5104968;28;20556;-80
2022/12/23 09:51:37;;;;;;;135.77;12.98;;;5.80;99.90;;;;;;5107680;28;20504;-79
2022/12/23 09:54:10;;;;;;;116.22;15.00;;;5.80;99.90;;;;;;5108148;28;20035;-80
2022/12/23 09:56:39;;;;;;;61.63;14.98;;;5.80;99.90;;;;;;5108119;28;20045;-80
2022/12/23 09:59:32;;;;;;;152.13;15.98;;;6.00;99.90;;;;;;5111664;28;20036;-80
2022/12/23 10:02:32;;;;;;;43.70;13.00;;;5.80;99.90;;;;;;5111305;28;20051;-80
2022/12/23 10:05:15;;;;;;;51.38;12.27;;;5.90;99.90;;;;;;5094939;28;20055;-80
2022/12/23 10:07:50;;;;;;;53.97;14.43;;;5.90;99.90;;;;;;5128075;28;20047;-80
2022/12/23 10:10:32;;;;;;;67.97;14.60;;;6.00;99.90;;;;;;5111611;28;20036;-80
2022/12/23 10:13:02;;;;;;;48.45;14.73;;;6.00;99.90;;;;;;5111087;28;20047;-79
2022/12/23 10:15:36;;;;;;;73.20;14.05;;;6.10;99.90;;;;;;5110812;28;20446;-80
2022/12/23 10:18:25;;;;;;;33.33;12.43;;;6.10;99.90;;;;;;5111122;28;20090;-80
2022/12/23 10:21:16;;;;;;;34.45;13.18;;;6.10;99.90;;;;;;5127822;28;20078;-80
2022/12/23 10:23:47;;;;;;;29.70;11.95;;;6.20;99.90;;;;;;5127556;28;20079;-80
2022/12/23 10:26:28;;;;;;;36.05;11.10;;;6.30;99.90;;;;;;5110859;28;20381;-80
2022/12/23 10:29:19;;;;;;;30.30;10.98;;;6.30;99.90;;;;;;5110860;28;20040;-80
2022/12/23 10:31:51;;;;;;;26.60;10.88;;;6.40;99.90;;;;;;5127165;28;20050;-80
2022/12/23 10:34:48;;;;;;;34.15;10.88;;;6.50;99.90;;;;;;5110837;28;20395;-80
2022/12/23 10:37:20;;;;;;;26.95;10.30;;;6.50;99.90;;;;;;5127561;28;20043;-80
2022/12/23 10:40:05;;;;;;;25.73;9.75;;;6.60;99.90;;;;;;5127781;28;20135;-80
2022/12/23 10:42:40;;;;;;;24.55;9.70;;;6.60;99.90;;;;;;5110688;28;20043;-80
2022/12/23 10:45:23;;;;;;;35.97;14.60;;;6.60;99.90;;;;;;5118843;28;20036;-80
2022/12/23 10:48:11;;;;;;;33.70;12.00;;;6.60;99.90;;;;;;5090167;28;20040;-80
2022/12/23 10:51:16;;;;;;;30.02;11.10;;;6.70;99.90;;;;;;5090234;28;20044;-80
2022/12/23 10:54:07;;;;;;;28.33;10.13;;;6.70;99.90;;;;;;5106897;28;20047;-80
2022/12/23 10:56:34;;;;;;;31.30;10.30;;;6.80;99.90;;;;;;5106960;28;20465;-80
2022/12/23 10:59:00;;;;;;;25.48;10.70;;;6.80;99.90;;;;;;5090471;28;20084;-80
2022/12/23 11:01:31;;;;;;;30.27;12.13;;;6.80;99.90;;;;;;5090463;28;20047;-80
2022/12/23 11:04:06;;;;;;;29.77;11.20;;;6.90;99.90;;;;;;5106804;28;20044;-80
2022/12/23 11:06:38;;;;;;;30.98;11.68;;;6.80;99.90;;;;;;5090398;28;20040;-80
2022/12/23 11:09:16;;;;;;;31.02;11.52;;;6.90;99.90;;;;;;5125736;28;20043;-80
2022/12/23 11:11:58;;;;;;;33.20;11.88;;;6.90;99.90;;;;;;5110340;28;20067;-80
2022/12/23 11:14:41;;;;;;;34.05;12.65;;;6.90;99.90;;;;;;5110578;28;20127;-80
2022/12/23 11:17:21;;;;;;;33.20;11.10;;;6.90;99.90;;;;;;5110522;28;20130;-80
2022/12/23 11:20:04;;;;;;;32.40;11.60;;;6.90;99.90;;;;;;5110169;28;20044;-80
2022/12/23 11:22:31;;;;;;;30.40;11.60;;;6.90;99.90;;;;;;5127097;28;20512;-80
2022/12/23 11:25:28;;;;;;;32.42;11.35;;;7.00;99.90;;;;;;5093473;28;20078;-80
2022/12/23 11:28:13;;;;;;;35.35;12.43;;;6.90;99.90;;;;;;5121408;28;20109;-80
2022/12/23 11:30:56;;;;;;;32.90;12.88;;;7.00;99.90;;;;;;5112199;28;20127;-80
2022/12/23 11:33:35;;;;;;;29.30;12.45;;;7.00;99.90;;;;;;5114331;28;20586;-80
2022/12/23 11:36:22;;;;;;;28.13;11.90;;;7.00;99.90;;;;;;5114153;28;20035;-80
2022/12/23 11:39:07;;;;;;;33.17;12.15;;;7.00;99.90;;;;;;5114205;28;20032;-80
2022/12/23 11:41:44;;;;;;;30.67;12.07;;;7.00;99.90;;;;;;5114038;28;20097;-80
2022/12/23 11:44:25;;;;;;;30.27;12.25;;;7.00;99.90;;;;;;5114029;28;20170;-80
2022/12/23 11:46:53;;;;;;;27.27;11.90;;;7.00;99.90;;;;;;5130905;28;20048;-80
2022/12/23 11:49:21;;;;;;;31.55;11.98;;;7.00;99.90;;;;;;5114006;28;20492;-80
2022/12/23 11:52:13;;;;;;;29.70;11.35;;;7.00;99.90;;;;;;5113748;28;20447;-80
2022/12/23 11:54:40;;;;;;;34.47;12.98;;;7.00;99.90;;;;;;5104843;28;20094;-80
2022/12/23 11:57:16;;;;;;;31.98;11.95;;;7.10;99.90;;;;;;5097267;28;20040;-80
2022/12/23 11:59:45;;;;;;;;;;;7.10;99.90;;;;;;5114391;28;20094;-79
2022/12/23 12:02:33;;;;;;;27.73;11.32;;;7.10;99.90;;;;;;5114055;28;20021;-80
2022/12/23 12:05:21;;;;;;;28.85;11.55;;;7.10;99.90;;;;;;5113736;28;20048;-81
2022/12/23 12:07:49;;;;;;;27.48;11.13;;;7.20;99.90;;;;;;5130590;28;20048;-81
2022/12/23 12:10:27;;;;;;;25.95;11.07;;;7.10;99.90;;;;;;5113709;28;20035;-80
2022/12/23 12:12:57;;;;;;;27.45;10.32;;;7.20;99.90;;;;;;5113567;28;20047;-80
2022/12/23 12:15:43;;;;;;;27.75;10.73;;;7.20;99.90;;;;;;5113500;28;20036;-81
2022/12/23 12:18:14;;;;;;;28.95;11.27;;;7.10;99.90;;;;;;5130674;28;20040;-81
2022/12/23 12:20:46;;;;;;;23.20;9.43;;;7.10;99.90;;;;;;5113330;28;20066;-81
2022/12/23 12:23:22;;;;;;;23.88;9.63;;;7.10;99.90;;;;;;5113696;28;20083;-81
2022/12/23 12:26:01;;;;;;;22.63;7.90;;;7.10;99.90;;;;;;5113291;28;20044;-81
2022/12/23 12:28:35;;;;;;;21.27;9.55;;;7.10;99.90;;;;;;5113431;28;20047;-80
2022/12/23 12:31:13;;;;;;;21.80;8.98;;;7.10;99.90;;;;;;5118759;28;20042;-81
2022/12/23 12:33:47;;;;;;;22.35;9.55;;;7.10;99.90;;;;;;5133877;28;20074;-80
2022/12/23 12:36:26;;;;;;;25.90;8.82;;;7.10;99.90;;;;;;5150498;28;20479;-81
2022/12/23 12:38:57;;;;;;;20.85;8.45;;;7.10;99.90;;;;;;5133490;28;20040;-81
2022/12/23 12:41:51;;;;;;;24.73;8.27;;;7.10;99.90;;;;;;5133301;28;20040;-81
2022/12/23 12:44:26;;;;;;;21.38;7.65;;;7.10;99.90;;;;;;5150399;28;20035;-80
2022/12/23 12:47:00;;;;;;;21.30;8.02;;;7.10;99.90;;;;;;5133359;28;20138;-81
2022/12/23 12:49:57;;;;;;;19.92;7.95;;;7.10;99.90;;;;;;5143471;28;20056;-80
2022/12/23 12:52:27;;;;;;;20.95;8.30;;;7.10;99.90;;;;;;5128154;28;20196;-81
2022/12/23 12:54:53;;;;;;;18.00;7.75;;;7.10;99.90;;;;;;5115910;28;20404;-81
2022/12/23 12:57:22;;;;;;;19.58;8.60;;;7.10;99.90;;;;;;5129442;28;20039;-80
2022/12/23 12:59:53;;;;;;;18.02;7.32;;;7.10;99.90;;;;;;5096330;28;20039;-81
2022/12/23 13:02:35;;;;;;;19.65;7.57;;;7.10;99.90;;;;;;5112994;28;20128;-81
2022/12/23 13:05:11;;;;;;;23.10;8.10;;;6.60;99.90;;;;;;5129915;28;20123;-81
2022/12/23 13:07:53;;;;;;;18.95;7.68;;;7.10;99.90;;;;;;5108757;28;20119;-80
2022/12/23 13:10:58;;;;;;;20.55;8.95;;;7.10;99.90;;;;;;5092520;28;20040;-80
2022/12/23 13:14:04;;;;;;;20.58;8.20;;;7.10;99.90;;;;;;5092109;28;20043;-81
2022/12/23 13:16:47;;;;;;;24.60;9.57;;;7.10;99.90;;;;;;5109160;28;20109;-80
2022/12/23 13:19:13;;;;;;;22.17;8.52;;;7.10;99.90;;;;;;5092332;28;20046;-80
2022/12/23 13:21:49;;;;;;;24.35;9.68;;;7.10;99.90;;;;;;5092045;28;20055;-81
2022/12/23 13:24:35;;;;;;;25.25;10.15;;;7.10;99.90;;;;;;5092398;28;20493;-80
2022/12/23 13:27:33;;;;;;;27.88;9.48;;;7.10;99.90;;;;;;5112137;28;20055;-80
2022/12/23 13:30:10;;;;;;;26.08;11.07;;;7.10;99.90;;;;;;5128875;28;20086;-80